Terminal Aerodrome Forecast
Issued by NWS

Current Version | Previous Version | Text Only | Print | Product List | Glossary Off
Versions: 1 2 3 4 5 6 7 8 9 10 11 12 13 14 15 16 17 18 19 20 21 22 23

000
FTUS41 KILN 021200 AAA
TAFLCK
TAF AMD
KLCK 021231Z 0213/0312 32009KT P6SM -SHRA VCTS SCT015 OVC040CB
      TEMPO 0213/0214 5SM -SHRA OVC015
     FM021500 22008KT P6SM VCSH BKN040
     FM022000 25008KT P6SM SCT040
     FM030000 21004KT P6SM SCT250
     FM030800 00000KT 2SM BR SCT025=

USA.gov is the U.S. government's official web portal to all federal, state and local government web resources and services.